sensor_id;sensor_type;location;lat;lon;timestamp;P1;durP1;ratioP1;P2;durP2;ratioP2
59922;SDS011;45778;51.142;3.732;2023-05-07T00:02:21;10.35;;;4.53;;
59922;SDS011;45778;51.142;3.732;2023-05-07T00:04:47;8.50;;;4.55;;
59922;SDS011;45778;51.142;3.732;2023-05-07T00:07:13;10.18;;;4.85;;
59922;SDS011;45778;51.142;3.732;2023-05-07T00:09:39;12.00;;;5.85;;
59922;SDS011;45778;51.142;3.732;2023-05-07T00:12:05;9.02;;;5.68;;
59922;SDS011;45778;51.142;3.732;2023-05-07T00:14:31;10.38;;;4.72;;
59922;SDS011;45778;51.142;3.732;2023-05-07T00:16:57;9.25;;;5.00;;
59922;SDS011;45778;51.142;3.732;2023-05-07T00:19:22;7.07;;;4.70;;
59922;SDS011;45778;51.142;3.732;2023-05-07T00:21:48;7.25;;;5.03;;
59922;SDS011;45778;51.142;3.732;2023-05-07T00:24:14;11.32;;;5.75;;
59922;SDS011;45778;51.142;3.732;2023-05-07T00:26:39;11.38;;;5.10;;
59922;SDS011;45778;51.142;3.732;2023-05-07T00:29:05;9.13;;;5.38;;
59922;SDS011;45778;51.142;3.732;2023-05-07T00:31:31;15.57;;;6.22;;
59922;SDS011;45778;51.142;3.732;2023-05-07T00:33:56;16.77;;;6.55;;
59922;SDS011;45778;51.142;3.732;2023-05-07T00:36:22;9.38;;;6.07;;
59922;SDS011;45778;51.142;3.732;2023-05-07T00:38:47;11.70;;;6.45;;
59922;SDS011;45778;51.142;3.732;2023-05-07T00:41:13;13.60;;;5.82;;
59922;SDS011;45778;51.142;3.732;2023-05-07T00:43:39;12.80;;;7.13;;
59922;SDS011;45778;51.142;3.732;2023-05-07T00:46:04;9.95;;;5.97;;
59922;SDS011;45778;51.142;3.732;2023-05-07T00:48:30;14.80;;;6.38;;
59922;SDS011;45778;51.142;3.732;2023-05-07T00:50:57;9.32;;;5.63;;
59922;SDS011;45778;51.142;3.732;2023-05-07T00:53:22;12.80;;;6.22;;
59922;SDS011;45778;51.142;3.732;2023-05-07T00:55:48;10.93;;;6.68;;
59922;SDS011;45778;51.142;3.732;2023-05-07T00:58:14;10.82;;;6.38;;
59922;SDS011;45778;51.142;3.732;2023-05-07T01:00:40;13.88;;;7.22;;
59922;SDS011;45778;51.142;3.732;2023-05-07T01:03:05;11.00;;;7.35;;
59922;SDS011;45778;51.142;3.732;2023-05-07T01:05:31;9.27;;;6.78;;
59922;SDS011;45778;51.142;3.732;2023-05-07T01:07:57;10.60;;;6.32;;
59922;SDS011;45778;51.142;3.732;2023-05-07T01:10:24;11.02;;;6.78;;
59922;SDS011;45778;51.142;3.732;2023-05-07T01:12:50;11.68;;;7.15;;
59922;SDS011;45778;51.142;3.732;2023-05-07T01:15:17;9.55;;;6.22;;
59922;SDS011;45778;51.142;3.732;2023-05-07T01:17:43;11.60;;;6.18;;
59922;SDS011;45778;51.142;3.732;2023-05-07T01:20:09;13.70;;;7.05;;
59922;SDS011;45778;51.142;3.732;2023-05-07T01:22:36;9.40;;;6.45;;
59922;SDS011;45778;51.142;3.732;2023-05-07T01:25:03;11.35;;;6.85;;
59922;SDS011;45778;51.142;3.732;2023-05-07T01:27:30;12.15;;;6.90;;
59922;SDS011;45778;51.142;3.732;2023-05-07T01:29:55;12.90;;;6.88;;
59922;SDS011;45778;51.142;3.732;2023-05-07T01:32:24;9.43;;;6.35;;
59922;SDS011;45778;51.142;3.732;2023-05-07T01:34:57;12.73;;;6.15;;
59922;SDS011;45778;51.142;3.732;2023-05-07T01:37:23;9.40;;;6.15;;
59922;SDS011;45778;51.142;3.732;2023-05-07T01:39:50;9.50;;;6.13;;
59922;SDS011;45778;51.142;3.732;2023-05-07T01:42:17;9.90;;;6.35;;
59922;SDS011;45778;51.142;3.732;2023-05-07T01:44:43;12.70;;;6.45;;
59922;SDS011;45778;51.142;3.732;2023-05-07T01:47:08;13.57;;;6.18;;
59922;SDS011;45778;51.142;3.732;2023-05-07T01:49:34;11.23;;;6.65;;
59922;SDS011;45778;51.142;3.732;2023-05-07T01:52:00;9.55;;;6.10;;
59922;SDS011;45778;51.142;3.732;2023-05-07T01:54:27;11.02;;;6.10;;
59922;SDS011;45778;51.142;3.732;2023-05-07T01:56:53;10.98;;;6.55;;
59922;SDS011;45778;51.142;3.732;2023-05-07T01:59:18;9.05;;;5.88;;
59922;SDS011;45778;51.142;3.732;2023-05-07T02:01:44;11.55;;;6.20;;
59922;SDS011;45778;51.142;3.732;2023-05-07T02:04:10;12.30;;;5.95;;
59922;SDS011;45778;51.142;3.732;2023-05-07T02:06:35;11.80;;;6.57;;
59922;SDS011;45778;51.142;3.732;2023-05-07T02:09:01;10.43;;;5.95;;
59922;SDS011;45778;51.142;3.732;2023-05-07T02:11:27;14.25;;;7.07;;
59922;SDS011;45778;51.142;3.732;2023-05-07T02:13:52;7.13;;;5.45;;
59922;SDS011;45778;51.142;3.732;2023-05-07T02:16:18;11.45;;;6.20;;
59922;SDS011;45778;51.142;3.732;2023-05-07T02:18:44;10.07;;;6.35;;
59922;SDS011;45778;51.142;3.732;2023-05-07T02:21:10;10.25;;;6.10;;
59922;SDS011;45778;51.142;3.732;2023-05-07T02:23:36;9.38;;;6.35;;
59922;SDS011;45778;51.142;3.732;2023-05-07T02:26:01;12.68;;;6.75;;
59922;SDS011;45778;51.142;3.732;2023-05-07T02:28:28;13.40;;;6.50;;
59922;SDS011;45778;51.142;3.732;2023-05-07T02:30:54;10.43;;;6.20;;
59922;SDS011;45778;51.142;3.732;2023-05-07T02:33:20;8.63;;;6.55;;
59922;SDS011;45778;51.142;3.732;2023-05-07T02:35:45;8.95;;;6.55;;
59922;SDS011;45778;51.142;3.732;2023-05-07T02:38:11;15.10;;;6.47;;
59922;SDS011;45778;51.142;3.732;2023-05-07T02:40:36;9.85;;;6.50;;
59922;SDS011;45778;51.142;3.732;2023-05-07T02:43:05;9.68;;;5.72;;
59922;SDS011;45778;51.142;3.732;2023-05-07T02:45:31;11.75;;;7.45;;
59922;SDS011;45778;51.142;3.732;2023-05-07T02:47:57;11.55;;;7.20;;
59922;SDS011;45778;51.142;3.732;2023-05-07T02:50:23;15.38;;;7.30;;
59922;SDS011;45778;51.142;3.732;2023-05-07T02:52:50;16.90;;;7.20;;
59922;SDS011;45778;51.142;3.732;2023-05-07T02:55:15;11.60;;;6.90;;
59922;SDS011;45778;51.142;3.732;2023-05-07T02:57:41;12.15;;;6.10;;
59922;SDS011;45778;51.142;3.732;2023-05-07T03:00:13;13.57;;;6.70;;
59922;SDS011;45778;51.142;3.732;2023-05-07T03:02:40;10.90;;;6.43;;
59922;SDS011;45778;51.142;3.732;2023-05-07T03:05:06;8.52;;;6.68;;
59922;SDS011;45778;51.142;3.732;2023-05-07T03:07:32;12.85;;;6.70;;
59922;SDS011;45778;51.142;3.732;2023-05-07T03:09:59;14.77;;;6.82;;
59922;SDS011;45778;51.142;3.732;2023-05-07T03:12:25;9.20;;;6.80;;
59922;SDS011;45778;51.142;3.732;2023-05-07T03:14:50;10.02;;;6.47;;
59922;SDS011;45778;51.142;3.732;2023-05-07T03:17:16;11.05;;;6.38;;
59922;SDS011;45778;51.142;3.732;2023-05-07T03:19:41;9.70;;;6.70;;
59922;SDS011;45778;51.142;3.732;2023-05-07T03:22:07;9.80;;;6.82;;
59922;SDS011;45778;51.142;3.732;2023-05-07T03:24:33;10.82;;;6.65;;
59922;SDS011;45778;51.142;3.732;2023-05-07T03:26:58;9.43;;;6.55;;
59922;SDS011;45778;51.142;3.732;2023-05-07T03:29:26;12.25;;;7.10;;
59922;SDS011;45778;51.142;3.732;2023-05-07T03:31:51;13.52;;;7.38;;
59922;SDS011;45778;51.142;3.732;2023-05-07T03:34:17;10.25;;;6.55;;
59922;SDS011;45778;51.142;3.732;2023-05-07T03:36:47;12.05;;;6.75;;
59922;SDS011;45778;51.142;3.732;2023-05-07T03:39:16;9.07;;;6.35;;
59922;SDS011;45778;51.142;3.732;2023-05-07T03:41:41;9.30;;;6.65;;
59922;SDS011;45778;51.142;3.732;2023-05-07T03:44:07;11.32;;;6.85;;
59922;SDS011;45778;51.142;3.732;2023-05-07T03:46:33;14.85;;;7.55;;
59922;SDS011;45778;51.142;3.732;2023-05-07T03:48:59;10.63;;;7.00;;
59922;SDS011;45778;51.142;3.732;2023-05-07T03:51:25;11.18;;;7.43;;
59922;SDS011;45778;51.142;3.732;2023-05-07T03:53:51;13.27;;;7.40;;
59922;SDS011;45778;51.142;3.732;2023-05-07T03:56:22;11.82;;;7.50;;
59922;SDS011;45778;51.142;3.732;2023-05-07T03:58:51;12.55;;;7.28;;
59922;SDS011;45778;51.142;3.732;2023-05-07T04:01:17;13.38;;;7.22;;
59922;SDS011;45778;51.142;3.732;2023-05-07T04:03:42;13.70;;;7.30;;
59922;SDS011;45778;51.142;3.732;2023-05-07T04:06:08;12.80;;;6.90;;
59922;SDS011;45778;51.142;3.732;2023-05-07T04:08:34;12.57;;;7.20;;
59922;SDS011;45778;51.142;3.732;2023-05-07T04:10:59;11.80;;;7.25;;
59922;SDS011;45778;51.142;3.732;2023-05-07T04:13:25;10.55;;;7.30;;
59922;SDS011;45778;51.142;3.732;2023-05-07T04:15:51;12.15;;;6.85;;
59922;SDS011;45778;51.142;3.732;2023-05-07T04:18:17;11.48;;;8.88;;
59922;SDS011;45778;51.142;3.732;2023-05-07T04:20:43;11.52;;;7.68;;
59922;SDS011;45778;51.142;3.732;2023-05-07T04:23:08;12.70;;;7.30;;
59922;SDS011;45778;51.142;3.732;2023-05-07T04:25:34;11.73;;;8.38;;
59922;SDS011;45778;51.142;3.732;2023-05-07T04:28:00;15.15;;;8.48;;
59922;SDS011;45778;51.142;3.732;2023-05-07T04:30:26;12.65;;;8.02;;
59922;SDS011;45778;51.142;3.732;2023-05-07T04:32:52;12.10;;;8.65;;
59922;SDS011;45778;51.142;3.732;2023-05-07T04:35:18;14.18;;;8.18;;
59922;SDS011;45778;51.142;3.732;2023-05-07T04:37:44;16.88;;;8.73;;
59922;SDS011;45778;51.142;3.732;2023-05-07T04:40:09;14.00;;;8.98;;
59922;SDS011;45778;51.142;3.732;2023-05-07T04:42:35;10.02;;;8.00;;
59922;SDS011;45778;51.142;3.732;2023-05-07T04:45:01;11.80;;;7.95;;
59922;SDS011;45778;51.142;3.732;2023-05-07T04:47:27;15.95;;;8.00;;
59922;SDS011;45778;51.142;3.732;2023-05-07T04:49:52;9.95;;;7.90;;
59922;SDS011;45778;51.142;3.732;2023-05-07T04:52:18;12.18;;;8.40;;
59922;SDS011;45778;51.142;3.732;2023-05-07T04:54:44;13.27;;;7.85;;
59922;SDS011;45778;51.142;3.732;2023-05-07T04:57:09;12.32;;;8.30;;
59922;SDS011;45778;51.142;3.732;2023-05-07T04:59:35;13.85;;;8.90;;
59922;SDS011;45778;51.142;3.732;2023-05-07T05:02:01;15.93;;;9.68;;
59922;SDS011;45778;51.142;3.732;2023-05-07T05:04:26;11.48;;;8.85;;
59922;SDS011;45778;51.142;3.732;2023-05-07T05:06:52;15.13;;;8.98;;
59922;SDS011;45778;51.142;3.732;2023-05-07T05:09:18;17.73;;;9.63;;
59922;SDS011;45778;51.142;3.732;2023-05-07T05:11:43;14.38;;;8.63;;
59922;SDS011;45778;51.142;3.732;2023-05-07T05:14:09;19.92;;;8.70;;
59922;SDS011;45778;51.142;3.732;2023-05-07T05:16:35;14.82;;;8.45;;
59922;SDS011;45778;51.142;3.732;2023-05-07T05:19:01;12.98;;;8.07;;
59922;SDS011;45778;51.142;3.732;2023-05-07T05:21:27;13.27;;;8.73;;
59922;SDS011;45778;51.142;3.732;2023-05-07T05:23:53;12.95;;;8.80;;
59922;SDS011;45778;51.142;3.732;2023-05-07T05:26:19;16.63;;;8.30;;
59922;SDS011;45778;51.142;3.732;2023-05-07T05:28:46;12.70;;;8.02;;
59922;SDS011;45778;51.142;3.732;2023-05-07T05:31:11;11.32;;;7.78;;
59922;SDS011;45778;51.142;3.732;2023-05-07T05:33:37;13.70;;;7.68;;
59922;SDS011;45778;51.142;3.732;2023-05-07T05:36:03;12.40;;;7.50;;
59922;SDS011;45778;51.142;3.732;2023-05-07T05:38:29;12.70;;;8.73;;
59922;SDS011;45778;51.142;3.732;2023-05-07T05:40:55;15.18;;;8.20;;
59922;SDS011;45778;51.142;3.732;2023-05-07T05:43:20;10.95;;;7.85;;
59922;SDS011;45778;51.142;3.732;2023-05-07T05:45:46;13.13;;;8.20;;
59922;SDS011;45778;51.142;3.732;2023-05-07T05:48:11;14.95;;;8.88;;
59922;SDS011;45778;51.142;3.732;2023-05-07T05:50:37;12.70;;;9.50;;
59922;SDS011;45778;51.142;3.732;2023-05-07T05:53:03;14.23;;;8.77;;
59922;SDS011;45778;51.142;3.732;2023-05-07T05:55:28;14.73;;;8.05;;
59922;SDS011;45778;51.142;3.732;2023-05-07T05:57:54;13.18;;;7.57;;
59922;SDS011;45778;51.142;3.732;2023-05-07T06:00:21;14.80;;;8.25;;
59922;SDS011;45778;51.142;3.732;2023-05-07T06:02:47;14.60;;;8.13;;
59922;SDS011;45778;51.142;3.732;2023-05-07T06:05:13;14.65;;;8.32;;
59922;SDS011;45778;51.142;3.732;2023-05-07T06:07:39;16.80;;;8.32;;
59922;SDS011;45778;51.142;3.732;2023-05-07T06:10:05;14.52;;;7.53;;
59922;SDS011;45778;51.142;3.732;2023-05-07T06:12:31;11.57;;;7.95;;
59922;SDS011;45778;51.142;3.732;2023-05-07T06:14:57;15.35;;;8.15;;
59922;SDS011;45778;51.142;3.732;2023-05-07T06:17:23;9.85;;;7.43;;
59922;SDS011;45778;51.142;3.732;2023-05-07T06:19:48;11.52;;;6.95;;
59922;SDS011;45778;51.142;3.732;2023-05-07T06:22:14;12.70;;;7.30;;
59922;SDS011;45778;51.142;3.732;2023-05-07T06:24:40;11.75;;;7.35;;
59922;SDS011;45778;51.142;3.732;2023-05-07T06:27:05;15.35;;;7.57;;
59922;SDS011;45778;51.142;3.732;2023-05-07T06:29:31;13.10;;;7.18;;
59922;SDS011;45778;51.142;3.732;2023-05-07T06:32:07;12.52;;;7.63;;
59922;SDS011;45778;51.142;3.732;2023-05-07T06:34:36;15.68;;;7.07;;
59922;SDS011;45778;51.142;3.732;2023-05-07T06:37:02;12.35;;;6.90;;
59922;SDS011;45778;51.142;3.732;2023-05-07T06:39:28;13.18;;;6.47;;
59922;SDS011;45778;51.142;3.732;2023-05-07T06:41:53;11.68;;;5.85;;
59922;SDS011;45778;51.142;3.732;2023-05-07T06:44:19;9.70;;;5.45;;
59922;SDS011;45778;51.142;3.732;2023-05-07T06:46:45;7.90;;;5.90;;
59922;SDS011;45778;51.142;3.732;2023-05-07T06:49:12;7.07;;;4.82;;
59922;SDS011;45778;51.142;3.732;2023-05-07T06:51:38;8.60;;;5.05;;
59922;SDS011;45778;51.142;3.732;2023-05-07T06:54:04;9.82;;;5.25;;
59922;SDS011;45778;51.142;3.732;2023-05-07T06:56:30;9.85;;;5.70;;
59922;SDS011;45778;51.142;3.732;2023-05-07T06:58:56;9.73;;;5.50;;
59922;SDS011;45778;51.142;3.732;2023-05-07T07:01:21;7.80;;;5.70;;
59922;SDS011;45778;51.142;3.732;2023-05-07T07:03:47;10.52;;;5.80;;
59922;SDS011;45778;51.142;3.732;2023-05-07T07:06:13;11.35;;;4.95;;
59922;SDS011;45778;51.142;3.732;2023-05-07T07:08:38;13.30;;;6.07;;
59922;SDS011;45778;51.142;3.732;2023-05-07T07:11:07;8.95;;;5.28;;
59922;SDS011;45778;51.142;3.732;2023-05-07T07:13:33;11.65;;;6.47;;
59922;SDS011;45778;51.142;3.732;2023-05-07T07:15:59;13.98;;;6.85;;
59922;SDS011;45778;51.142;3.732;2023-05-07T07:18:25;9.05;;;6.22;;
59922;SDS011;45778;51.142;3.732;2023-05-07T07:20:51;12.93;;;6.68;;
59922;SDS011;45778;51.142;3.732;2023-05-07T07:23:16;7.75;;;6.78;;
59922;SDS011;45778;51.142;3.732;2023-05-07T07:25:42;11.65;;;6.88;;
59922;SDS011;45778;51.142;3.732;2023-05-07T07:28:07;5.90;;;4.07;;
59922;SDS011;45778;51.142;3.732;2023-05-07T07:30:33;6.40;;;4.50;;
59922;SDS011;45778;51.142;3.732;2023-05-07T07:32:59;9.93;;;4.70;;
59922;SDS011;45778;51.142;3.732;2023-05-07T07:35:30;8.48;;;4.45;;
59922;SDS011;45778;51.142;3.732;2023-05-07T07:37:56;6.90;;;3.63;;
59922;SDS011;45778;51.142;3.732;2023-05-07T07:40:22;7.68;;;3.60;;
59922;SDS011;45778;51.142;3.732;2023-05-07T07:42:48;6.28;;;3.95;;
59922;SDS011;45778;51.142;3.732;2023-05-07T07:45:14;7.85;;;3.67;;
59922;SDS011;45778;51.142;3.732;2023-05-07T07:47:40;8.30;;;3.38;;
59922;SDS011;45778;51.142;3.732;2023-05-07T07:50:06;7.40;;;3.03;;
59922;SDS011;45778;51.142;3.732;2023-05-07T07:52:32;6.10;;;3.00;;
59922;SDS011;45778;51.142;3.732;2023-05-07T07:54:58;5.53;;;3.13;;
59922;SDS011;45778;51.142;3.732;2023-05-07T07:57:24;7.38;;;2.88;;
59922;SDS011;45778;51.142;3.732;2023-05-07T07:59:50;6.22;;;4.18;;
59922;SDS011;45778;51.142;3.732;2023-05-07T08:02:16;6.45;;;2.72;;
59922;SDS011;45778;51.142;3.732;2023-05-07T08:04:42;4.90;;;2.60;;
59922;SDS011;45778;51.142;3.732;2023-05-07T08:07:10;5.93;;;3.22;;
59922;SDS011;45778;51.142;3.732;2023-05-07T08:09:39;6.35;;;2.60;;
59922;SDS011;45778;51.142;3.732;2023-05-07T08:12:06;6.32;;;2.83;;
59922;SDS011;45778;51.142;3.732;2023-05-07T08:14:32;3.75;;;2.47;;
59922;SDS011;45778;51.142;3.732;2023-05-07T08:16:58;4.97;;;2.55;;
59922;SDS011;45778;51.142;3.732;2023-05-07T08:19:23;5.90;;;2.58;;
59922;SDS011;45778;51.142;3.732;2023-05-07T08:21:49;6.65;;;2.92;;
59922;SDS011;45778;51.142;3.732;2023-05-07T08:24:15;7.25;;;3.00;;
59922;SDS011;45778;51.142;3.732;2023-05-07T08:26:41;4.43;;;2.70;;
59922;SDS011;45778;51.142;3.732;2023-05-07T08:29:08;4.68;;;2.53;;
59922;SDS011;45778;51.142;3.732;2023-05-07T08:31:33;6.03;;;2.72;;
59922;SDS011;45778;51.142;3.732;2023-05-07T08:33:59;6.40;;;2.65;;
59922;SDS011;45778;51.142;3.732;2023-05-07T08:36:25;4.70;;;2.53;;
59922;SDS011;45778;51.142;3.732;2023-05-07T08:38:51;5.22;;;2.40;;
59922;SDS011;45778;51.142;3.732;2023-05-07T08:41:17;3.53;;;2.17;;
59922;SDS011;45778;51.142;3.732;2023-05-07T08:43:45;5.57;;;2.35;;
59922;SDS011;45778;51.142;3.732;2023-05-07T08:46:17;6.43;;;2.47;;
59922;SDS011;45778;51.142;3.732;2023-05-07T08:48:49;6.57;;;2.88;;
59922;SDS011;45778;51.142;3.732;2023-05-07T08:51:16;7.75;;;2.67;;
59922;SDS011;45778;51.142;3.732;2023-05-07T08:53:44;6.22;;;2.58;;
59922;SDS011;45778;51.142;3.732;2023-05-07T08:56:10;6.93;;;2.60;;
59922;SDS011;45778;51.142;3.732;2023-05-07T08:58:37;4.13;;;2.28;;
59922;SDS011;45778;51.142;3.732;2023-05-07T09:01:03;6.13;;;2.42;;
59922;SDS011;45778;51.142;3.732;2023-05-07T09:03:32;5.05;;;2.28;;
59922;SDS011;45778;51.142;3.732;2023-05-07T09:05:58;3.55;;;2.42;;
59922;SDS011;45778;51.142;3.732;2023-05-07T09:08:24;5.45;;;2.50;;
59922;SDS011;45778;51.142;3.732;2023-05-07T09:10:52;7.05;;;2.53;;
59922;SDS011;45778;51.142;3.732;2023-05-07T09:13:18;3.72;;;2.47;;
59922;SDS011;45778;51.142;3.732;2023-05-07T09:15:44;5.68;;;3.15;;
59922;SDS011;45778;51.142;3.732;2023-05-07T09:18:09;4.95;;;2.40;;
59922;SDS011;45778;51.142;3.732;2023-05-07T09:20:39;7.00;;;2.30;;
59922;SDS011;45778;51.142;3.732;2023-05-07T09:23:05;4.82;;;2.60;;
59922;SDS011;45778;51.142;3.732;2023-05-07T09:25:32;5.97;;;2.42;;
59922;SDS011;45778;51.142;3.732;2023-05-07T09:28:02;4.82;;;2.38;;
59922;SDS011;45778;51.142;3.732;2023-05-07T09:30:33;4.75;;;2.20;;
59922;SDS011;45778;51.142;3.732;2023-05-07T09:33:00;3.70;;;1.67;;
59922;SDS011;45778;51.142;3.732;2023-05-07T09:35:27;2.80;;;1.70;;
59922;SDS011;45778;51.142;3.732;2023-05-07T09:37:57;5.93;;;2.42;;
59922;SDS011;45778;51.142;3.732;2023-05-07T09:40:28;5.40;;;2.17;;
59922;SDS011;45778;51.142;3.732;2023-05-07T09:42:55;3.97;;;1.88;;
59922;SDS011;45778;51.142;3.732;2023-05-07T09:45:28;3.78;;;1.67;;
59922;SDS011;45778;51.142;3.732;2023-05-07T09:47:55;4.97;;;2.00;;
59922;SDS011;45778;51.142;3.732;2023-05-07T09:51:09;6.95;;;2.05;;
59922;SDS011;45778;51.142;3.732;2023-05-07T09:53:13;3.42;;;1.80;;
59922;SDS011;45778;51.142;3.732;2023-05-07T09:55:41;4.30;;;1.50;;
59922;SDS011;45778;51.142;3.732;2023-05-07T09:58:07;4.78;;;1.83;;
59922;SDS011;45778;51.142;3.732;2023-05-07T10:00:34;4.57;;;2.72;;
59922;SDS011;45778;51.142;3.732;2023-05-07T10:03:01;5.72;;;2.85;;
59922;SDS011;45778;51.142;3.732;2023-05-07T10:05:28;6.80;;;2.65;;
59922;SDS011;45778;51.142;3.732;2023-05-07T10:07:54;5.85;;;3.33;;
59922;SDS011;45778;51.142;3.732;2023-05-07T10:10:22;5.10;;;2.65;;
59922;SDS011;45778;51.142;3.732;2023-05-07T10:12:49;8.75;;;2.88;;
59922;SDS011;45778;51.142;3.732;2023-05-07T10:15:16;4.38;;;3.30;;
59922;SDS011;45778;51.142;3.732;2023-05-07T10:17:42;5.32;;;2.95;;
59922;SDS011;45778;51.142;3.732;2023-05-07T10:20:08;4.88;;;2.55;;
59922;SDS011;45778;51.142;3.732;2023-05-07T10:22:43;7.18;;;2.60;;
59922;SDS011;45778;51.142;3.732;2023-05-07T10:25:14;3.45;;;2.35;;
59922;SDS011;45778;51.142;3.732;2023-05-07T10:28:01;3.80;;;1.73;;
59922;SDS011;45778;51.142;3.732;2023-05-07T10:30:38;4.28;;;1.50;;
59922;SDS011;45778;51.142;3.732;2023-05-07T10:33:19;4.47;;;1.67;;
59922;SDS011;45778;51.142;3.732;2023-05-07T10:35:49;3.55;;;1.77;;
59922;SDS011;45778;51.142;3.732;2023-05-07T10:38:15;2.67;;;1.05;;
59922;SDS011;45778;51.142;3.732;2023-05-07T10:40:41;1.98;;;0.90;;
59922;SDS011;45778;51.142;3.732;2023-05-07T10:43:06;5.63;;;1.10;;
59922;SDS011;45778;51.142;3.732;2023-05-07T10:45:32;1.98;;;1.38;;
59922;SDS011;45778;51.142;3.732;2023-05-07T10:48:11;4.85;;;1.63;;
59922;SDS011;45778;51.142;3.732;2023-05-07T10:50:38;3.95;;;1.40;;
59922;SDS011;45778;51.142;3.732;2023-05-07T10:53:26;4.35;;;1.05;;
59922;SDS011;45778;51.142;3.732;2023-05-07T10:56:23;2.55;;;1.13;;
59922;SDS011;45778;51.142;3.732;2023-05-07T10:58:41;3.50;;;1.23;;
59922;SDS011;45778;51.142;3.732;2023-05-07T11:01:07;3.67;;;1.40;;
59922;SDS011;45778;51.142;3.732;2023-05-07T11:03:33;2.58;;;1.35;;
59922;SDS011;45778;51.142;3.732;2023-05-07T11:06:14;4.28;;;1.15;;
59922;SDS011;45778;51.142;3.732;2023-05-07T11:11:16;3.58;;;1.15;;
59922;SDS011;45778;51.142;3.732;2023-05-07T11:18:56;2.20;;;1.00;;
59922;SDS011;45778;51.142;3.732;2023-05-07T11:24:03;2.22;;;1.20;;
59922;SDS011;45778;51.142;3.732;2023-05-07T11:26:31;2.95;;;1.20;;
59922;SDS011;45778;51.142;3.732;2023-05-07T11:29:16;2.75;;;1.05;;
59922;SDS011;45778;51.142;3.732;2023-05-07T11:31:43;2.70;;;1.30;;
59922;SDS011;45778;51.142;3.732;2023-05-07T11:34:09;2.55;;;1.10;;
59922;SDS011;45778;51.142;3.732;2023-05-07T11:36:37;3.17;;;1.40;;
59922;SDS011;45778;51.142;3.732;2023-05-07T11:39:31;1.80;;;1.10;;
59922;SDS011;45778;51.142;3.732;2023-05-07T11:42:00;2.35;;;1.25;;
59922;SDS011;45778;51.142;3.732;2023-05-07T11:44:42;2.45;;;1.40;;
59922;SDS011;45778;51.142;3.732;2023-05-07T11:47:09;3.92;;;1.23;;
59922;SDS011;45778;51.142;3.732;2023-05-07T11:49:35;3.40;;;1.60;;
59922;SDS011;45778;51.142;3.732;2023-05-07T11:52:01;2.30;;;1.20;;
59922;SDS011;45778;51.142;3.732;2023-05-07T11:54:34;2.33;;;1.63;;
59922;SDS011;45778;51.142;3.732;2023-05-07T11:57:01;2.90;;;1.35;;
59922;SDS011;45778;51.142;3.732;2023-05-07T11:59:27;2.78;;;1.45;;
59922;SDS011;45778;51.142;3.732;2023-05-07T12:01:55;3.33;;;1.45;;
59922;SDS011;45778;51.142;3.732;2023-05-07T12:04:22;3.08;;;1.42;;
59922;SDS011;45778;51.142;3.732;2023-05-07T12:06:48;2.25;;;1.40;;
59922;SDS011;45778;51.142;3.732;2023-05-07T12:09:15;4.63;;;1.40;;
59922;SDS011;45778;51.142;3.732;2023-05-07T12:11:42;2.65;;;1.17;;
59922;SDS011;45778;51.142;3.732;2023-05-07T12:14:11;2.40;;;1.35;;
59922;SDS011;45778;51.142;3.732;2023-05-07T12:16:36;3.58;;;1.30;;
59922;SDS011;45778;51.142;3.732;2023-05-07T12:19:04;2.72;;;1.08;;
59922;SDS011;45778;51.142;3.732;2023-05-07T12:21:33;2.17;;;1.13;;
59922;SDS011;45778;51.142;3.732;2023-05-07T12:23:58;2.05;;;1.25;;
59922;SDS011;45778;51.142;3.732;2023-05-07T12:26:24;3.13;;;1.17;;
59922;SDS011;45778;51.142;3.732;2023-05-07T12:28:50;1.48;;;1.08;;
59922;SDS011;45778;51.142;3.732;2023-05-07T12:31:15;2.97;;;1.77;;
59922;SDS011;45778;51.142;3.732;2023-05-07T12:33:41;1.35;;;0.93;;
59922;SDS011;45778;51.142;3.732;2023-05-07T12:36:07;1.88;;;1.33;;
59922;SDS011;45778;51.142;3.732;2023-05-07T12:38:39;3.05;;;1.45;;
59922;SDS011;45778;51.142;3.732;2023-05-07T12:41:09;3.00;;;1.50;;
59922;SDS011;45778;51.142;3.732;2023-05-07T12:43:37;1.45;;;1.17;;
59922;SDS011;45778;51.142;3.732;2023-05-07T12:46:06;2.65;;;1.38;;
59922;SDS011;45778;51.142;3.732;2023-05-07T12:48:32;2.47;;;1.33;;
59922;SDS011;45778;51.142;3.732;2023-05-07T12:51:01;3.20;;;1.55;;
59922;SDS011;45778;51.142;3.732;2023-05-07T12:53:28;3.80;;;1.63;;
59922;SDS011;45778;51.142;3.732;2023-05-07T12:55:56;3.83;;;1.80;;
59922;SDS011;45778;51.142;3.732;2023-05-07T13:00:53;3.67;;;1.83;;
59922;SDS011;45778;51.142;3.732;2023-05-07T13:03:24;1.88;;;1.50;;
59922;SDS011;45778;51.142;3.732;2023-05-07T13:05:51;3.28;;;1.65;;
59922;SDS011;45778;51.142;3.732;2023-05-07T13:08:30;5.07;;;1.52;;
59922;SDS011;45778;51.142;3.732;2023-05-07T13:11:01;3.47;;;1.42;;
59922;SDS011;45778;51.142;3.732;2023-05-07T13:13:29;3.33;;;1.45;;
59922;SDS011;45778;51.142;3.732;2023-05-07T13:15:58;3.28;;;1.50;;
59922;SDS011;45778;51.142;3.732;2023-05-07T13:18:25;2.72;;;1.38;;
59922;SDS011;45778;51.142;3.732;2023-05-07T13:20:51;2.63;;;1.40;;
59922;SDS011;45778;51.142;3.732;2023-05-07T13:23:20;3.05;;;1.20;;
59922;SDS011;45778;51.142;3.732;2023-05-07T13:25:46;2.70;;;1.70;;
59922;SDS011;45778;51.142;3.732;2023-05-07T13:28:13;2.38;;;1.42;;
59922;SDS011;45778;51.142;3.732;2023-05-07T13:30:38;3.17;;;1.42;;
59922;SDS011;45778;51.142;3.732;2023-05-07T13:33:05;3.25;;;1.60;;
59922;SDS011;45778;51.142;3.732;2023-05-07T13:35:31;2.58;;;1.48;;
59922;SDS011;45778;51.142;3.732;2023-05-07T13:37:57;3.35;;;1.60;;
59922;SDS011;45778;51.142;3.732;2023-05-07T13:40:23;3.10;;;2.00;;
59922;SDS011;45778;51.142;3.732;2023-05-07T13:42:49;3.45;;;1.88;;
59922;SDS011;45778;51.142;3.732;2023-05-07T13:45:16;3.95;;;1.50;;
59922;SDS011;45778;51.142;3.732;2023-05-07T13:47:45;2.60;;;1.75;;
59922;SDS011;45778;51.142;3.732;2023-05-07T13:50:11;2.90;;;1.38;;
59922;SDS011;45778;51.142;3.732;2023-05-07T13:52:41;2.55;;;1.80;;
59922;SDS011;45778;51.142;3.732;2023-05-07T13:55:08;3.28;;;1.75;;
59922;SDS011;45778;51.142;3.732;2023-05-07T13:57:35;3.13;;;1.73;;
59922;SDS011;45778;51.142;3.732;2023-05-07T14:00:02;3.22;;;2.17;;
59922;SDS011;45778;51.142;3.732;2023-05-07T14:02:30;3.72;;;1.90;;
59922;SDS011;45778;51.142;3.732;2023-05-07T14:04:56;3.40;;;1.75;;
59922;SDS011;45778;51.142;3.732;2023-05-07T14:07:21;2.92;;;2.33;;
59922;SDS011;45778;51.142;3.732;2023-05-07T14:09:47;5.15;;;1.88;;
59922;SDS011;45778;51.142;3.732;2023-05-07T14:12:13;3.03;;;1.80;;
59922;SDS011;45778;51.142;3.732;2023-05-07T14:14:38;2.70;;;1.73;;
59922;SDS011;45778;51.142;3.732;2023-05-07T14:17:04;3.03;;;1.90;;
59922;SDS011;45778;51.142;3.732;2023-05-07T14:19:29;4.63;;;1.90;;
59922;SDS011;45778;51.142;3.732;2023-05-07T14:21:55;2.65;;;1.98;;
59922;SDS011;45778;51.142;3.732;2023-05-07T14:24:21;3.10;;;2.20;;
59922;SDS011;45778;51.142;3.732;2023-05-07T14:26:46;3.95;;;2.75;;
59922;SDS011;45778;51.142;3.732;2023-05-07T14:29:12;3.63;;;2.95;;
59922;SDS011;45778;51.142;3.732;2023-05-07T14:31:38;4.43;;;3.40;;
59922;SDS011;45778;51.142;3.732;2023-05-07T14:34:04;5.47;;;4.10;;
59922;SDS011;45778;51.142;3.732;2023-05-07T14:36:30;8.32;;;5.00;;
59922;SDS011;45778;51.142;3.732;2023-05-07T14:38:56;6.78;;;4.50;;
59922;SDS011;45778;51.142;3.732;2023-05-07T14:41:24;7.50;;;4.50;;
59922;SDS011;45778;51.142;3.732;2023-05-07T14:43:50;6.30;;;4.30;;
59922;SDS011;45778;51.142;3.732;2023-05-07T14:46:16;7.15;;;4.38;;
59922;SDS011;45778;51.142;3.732;2023-05-07T14:48:43;8.82;;;6.90;;
59922;SDS011;45778;51.142;3.732;2023-05-07T14:51:10;16.83;;;13.70;;
59922;SDS011;45778;51.142;3.732;2023-05-07T14:53:36;20.55;;;13.93;;
59922;SDS011;45778;51.142;3.732;2023-05-07T14:56:01;18.55;;;13.95;;